createdAt,value
2023-02-04T00:03:32.803Z,100.00
2023-02-04T00:07:34.258Z,100.00
2023-02-04T00:11:35.737Z,100.00
2023-02-04T00:15:37.177Z,100.00
2023-02-04T00:19:42.305Z,100.00
2023-02-04T00:23:43.750Z,100.00
2023-02-04T00:27:45.200Z,100.00
2023-02-04T00:31:46.779Z,100.00
2023-02-04T00:35:48.239Z,100.00
2023-02-04T00:39:49.783Z,100.00
2023-02-04T00:43:51.200Z,100.00
2023-02-04T00:47:52.766Z,100.00
2023-02-04T00:51:54.362Z,100.00
2023-02-04T00:55:55.822Z,100.00
2023-02-04T00:59:57.212Z,100.00
2023-02-04T01:03:58.687Z,100.00
2023-02-04T01:08:00.141Z,100.00
2023-02-04T01:12:01.561Z,100.00
2023-02-04T01:16:03.075Z,100.00
2023-02-04T01:20:04.974Z,100.00
2023-02-04T01:24:06.441Z,100.00
2023-02-04T01:28:07.926Z,100.00
2023-02-04T01:32:09.629Z,100.00
2023-02-04T01:36:11.078Z,100.00
2023-02-04T01:40:12.971Z,100.00
2023-02-04T01:44:14.511Z,100.00
2023-02-04T01:48:20.368Z,100.00
2023-02-04T01:52:22.947Z,100.00
2023-02-04T01:56:29.041Z,100.00
2023-02-04T02:00:33.383Z,100.00
2023-02-04T02:04:35.127Z,100.00
2023-02-04T02:08:37.720Z,100.00
2023-02-04T02:12:40.259Z,100.00
2023-02-04T02:16:41.852Z,100.00
2023-02-04T02:20:45.143Z,100.00
2023-02-04T02:24:46.573Z,100.00
2023-02-04T02:28:49.709Z,100.00
2023-02-04T02:32:52.598Z,100.00
2023-02-04T02:36:54.519Z,100.00
2023-02-04T02:40:57.041Z,100.00
2023-02-04T02:44:59.230Z,100.00
2023-02-04T02:49:00.810Z,100.00
2023-02-04T02:53:04.125Z,100.00
2023-02-04T02:57:13.081Z,100.00
2023-02-04T03:01:15.337Z,100.00
2023-02-04T03:05:16.883Z,100.00
2023-02-04T03:09:19.304Z,100.00
2023-02-04T03:13:21.618Z,100.00
2023-02-04T03:17:23.102Z,100.00
2023-02-04T03:21:24.588Z,100.00
2023-02-04T03:25:28.133Z,100.00
2023-02-04T03:29:29.972Z,100.00
2023-02-04T03:33:31.761Z,100.00
2023-02-04T03:37:33.302Z,100.00
2023-02-04T03:41:34.861Z,100.00
2023-02-04T03:45:44.977Z,100.00
2023-02-04T03:49:47.233Z,100.00
2023-02-04T03:53:48.641Z,100.00
2023-02-04T03:57:50.073Z,100.00
2023-02-04T04:01:52.572Z,100.00
2023-02-04T04:05:54.078Z,100.00
2023-02-04T04:09:55.514Z,100.00
2023-02-04T04:13:56.985Z,100.00
2023-02-04T04:17:58.412Z,100.00
2023-02-04T04:21:59.813Z,100.00
2023-02-04T04:26:01.263Z,100.00
2023-02-04T04:30:03.496Z,100.00
2023-02-04T04:34:04.944Z,100.00
2023-02-04T04:38:06.429Z,100.00
2023-02-04T04:42:07.860Z,100.00
2023-02-04T04:46:09.281Z,100.00
2023-02-04T04:50:11.082Z,100.00
2023-02-04T04:54:12.552Z,100.00
2023-02-04T04:58:14.086Z,100.00
2023-02-04T05:02:15.539Z,100.00
2023-02-04T05:06:17.071Z,100.00
2023-02-04T05:10:18.581Z,100.00
2023-02-04T05:14:20.135Z,100.00
2023-02-04T05:18:21.784Z,100.00
2023-02-04T05:22:23.260Z,100.00
2023-02-04T05:26:30.220Z,100.00
2023-02-04T05:30:32.677Z,100.00
2023-02-04T05:34:34.480Z,100.00
2023-02-04T05:38:35.920Z,100.00
2023-02-04T05:42:37.395Z,100.00
2023-02-04T05:46:39.272Z,100.00
2023-02-04T05:50:40.725Z,100.00
2023-02-04T05:54:42.198Z,100.00
2023-02-04T05:58:43.646Z,100.00
2023-02-04T06:02:45.086Z,100.00
2023-02-04T06:06:46.599Z,100.00
2023-02-04T06:10:48.086Z,100.00
2023-02-04T06:14:49.503Z,100.00
2023-02-04T06:18:51.005Z,100.00
2023-02-04T06:22:54.305Z,100.00
2023-02-04T06:26:55.731Z,100.00
2023-02-04T06:30:57.261Z,100.00
2023-02-04T06:34:58.838Z,100.00
2023-02-04T06:39:00.315Z,100.00
2023-02-04T06:43:03.442Z,100.00
2023-02-04T06:47:05.832Z,100.00
2023-02-04T06:51:07.427Z,100.00
2023-02-04T06:55:09.305Z,100.00
2023-02-04T06:59:11.133Z,100.00
2023-02-04T07:03:12.737Z,100.00
2023-02-04T07:07:14.226Z,100.00
2023-02-04T07:11:15.767Z,100.00
2023-02-04T07:15:17.345Z,100.00
2023-02-04T07:19:21.067Z,100.00
2023-02-04T07:23:24.357Z,100.00
2023-02-04T07:27:25.849Z,100.00
2023-02-04T07:31:27.407Z,100.00
2023-02-04T07:35:28.969Z,100.00
2023-02-04T07:39:30.615Z,100.00
2023-02-04T07:43:32.151Z,100.00
2023-02-04T07:47:33.668Z,100.00
2023-02-04T07:51:35.297Z,100.00
2023-02-04T07:55:36.888Z,100.00
2023-02-04T07:59:38.314Z,100.00
2023-02-04T08:03:41.719Z,100.00
2023-02-04T08:07:43.388Z,100.00
2023-02-04T08:11:44.875Z,100.00
2023-02-04T08:15:46.567Z,100.00
2023-02-04T08:19:48.120Z,100.00
2023-02-04T08:23:49.610Z,100.00
2023-02-04T08:27:52.185Z,100.00
2023-02-04T08:31:53.701Z,100.00
2023-02-04T08:35:55.147Z,100.00
2023-02-04T08:39:56.685Z,100.00
2023-02-04T08:43:58.175Z,100.00
2023-02-04T08:47:59.672Z,100.00
2023-02-04T08:52:02.884Z,100.00
2023-02-04T08:56:04.731Z,100.00
2023-02-04T09:00:06.529Z,100.00
2023-02-04T09:04:08.098Z,100.00
2023-02-04T09:08:09.838Z,100.00
2023-02-04T09:12:11.417Z,100.00
2023-02-04T09:16:12.911Z,100.00
2023-02-04T09:20:14.447Z,100.00
2023-02-04T09:24:15.887Z,100.00
2023-02-04T09:28:18.054Z,100.00
2023-02-04T09:32:19.566Z,100.00
2023-02-04T09:36:21.072Z,100.00
2023-02-04T09:40:23.299Z,100.00
2023-02-04T09:44:27.778Z,100.00
2023-02-04T09:48:29.388Z,100.00
2023-02-04T09:52:31.058Z,100.00
2023-02-04T09:56:33.283Z,100.00
2023-02-04T10:00:34.999Z,100.00
2023-02-04T10:04:37.010Z,100.00
2023-02-04T10:08:40.047Z,100.00
2023-02-04T10:12:41.523Z,100.00
2023-02-04T10:16:45.395Z,100.00
2023-02-04T10:20:46.908Z,100.00
2023-02-04T10:24:48.457Z,100.00
2023-02-04T10:28:49.965Z,100.00
2023-02-04T10:32:52.380Z,100.00
2023-02-04T10:36:57.748Z,100.00
2023-02-04T10:41:04.179Z,100.00
2023-02-04T10:45:05.996Z,100.00
2023-02-04T10:49:24.773Z,100.00
2023-02-04T10:53:45.630Z,100.00
2023-02-04T10:57:49.900Z,100.00
2023-02-04T11:01:51.327Z,60.63
2023-02-04T11:05:56.561Z,61.58
2023-02-04T11:09:58.120Z,62.45
2023-02-04T11:14:03.132Z,62.08
2023-02-04T11:18:07.292Z,63.55
2023-02-04T11:22:24.809Z,65.32
2023-02-04T11:26:38.536Z,68.17
2023-02-04T11:30:40.072Z,68.82
2023-02-04T11:34:48.342Z,71.13
2023-02-04T11:38:50.300Z,67.73
2023-02-04T11:43:01.086Z,66.15
2023-02-04T11:47:08.491Z,65.02
2023-02-04T11:51:16.251Z,66.27
2023-02-04T11:55:19.439Z,66.40
2023-02-04T11:59:21.419Z,64.08
2023-02-04T12:03:26.449Z,67.01
2023-02-04T12:07:29.952Z,69.50
2023-02-04T12:11:31.589Z,73.22
2023-02-04T12:15:38.721Z,71.50
2023-02-04T12:19:40.201Z,72.34
2023-02-04T12:23:44.408Z,71.41
2023-02-04T12:27:46.015Z,68.71
2023-02-04T12:31:50.595Z,64.18
2023-02-04T12:35:52.671Z,61.13
2023-02-04T12:39:54.136Z,60.24
2023-02-04T12:43:55.680Z,60.94
2023-02-04T12:47:57.188Z,63.34
2023-02-04T12:52:02.160Z,64.52
2023-02-04T12:56:03.892Z,65.33
2023-02-04T13:00:06.200Z,60.44
2023-02-04T13:04:07.654Z,56.35
2023-02-04T13:08:09.099Z,57.38
2023-02-04T13:12:13.549Z,57.92
2023-02-04T13:16:15.100Z,59.26
2023-02-04T13:20:16.760Z,59.46
2023-02-04T13:24:18.235Z,59.76
2023-02-04T13:28:19.727Z,53.38
2023-02-04T13:32:21.313Z,50.75
2023-02-04T13:36:23.063Z,49.80
2023-02-04T13:40:24.522Z,46.36
2023-02-04T13:44:25.981Z,43.06
2023-02-04T13:48:27.419Z,40.08
2023-02-04T13:52:28.895Z,43.39
2023-02-04T13:56:32.862Z,41.49
2023-02-04T14:00:34.698Z,40.68
2023-02-04T14:04:37.031Z,41.33
2023-02-04T14:08:38.567Z,43.89
2023-02-04T14:12:41.806Z,43.64
2023-02-04T14:16:43.551Z,41.80
2023-02-04T14:20:45.280Z,45.19
2023-02-04T14:24:47.581Z,45.31
2023-02-04T14:28:49.198Z,48.25
2023-02-04T14:32:50.881Z,49.94
2023-02-04T14:36:52.357Z,50.99
2023-02-04T14:40:53.797Z,51.12
2023-02-04T14:44:55.260Z,51.86
2023-02-04T14:48:56.791Z,53.90
2023-02-04T14:52:58.385Z,54.82
2023-02-04T14:56:59.863Z,56.45
2023-02-04T15:01:01.642Z,61.21
2023-02-04T15:05:03.757Z,60.95
2023-02-04T15:09:05.255Z,60.60
2023-02-04T15:13:06.692Z,59.64
2023-02-04T15:17:08.293Z,58.91
2023-02-04T15:21:10.065Z,60.06
2023-02-04T15:25:12.991Z,60.06
2023-02-04T15:29:14.436Z,61.17
2023-02-04T15:33:16.776Z,61.83
2023-02-04T15:37:19.819Z,60.15
2023-02-04T15:41:22.903Z,59.58
2023-02-04T15:45:24.527Z,59.46
2023-02-04T15:49:27.475Z,60.24
2023-02-04T15:53:31.769Z,60.32
2023-02-04T15:57:33.251Z,62.75
2023-02-04T16:01:34.775Z,61.90
2023-02-04T16:05:36.350Z,61.93
2023-02-04T16:09:37.803Z,61.89
2023-02-04T16:13:39.271Z,62.74
2023-02-04T16:17:41.136Z,64.10
2023-02-04T16:21:45.268Z,66.02
2023-02-04T16:25:46.756Z,65.82
2023-02-04T16:29:48.669Z,68.00
2023-02-04T16:33:50.098Z,67.47
2023-02-04T16:37:51.521Z,66.18
2023-02-04T16:41:53.062Z,67.54
2023-02-04T16:45:54.898Z,69.21
2023-02-04T16:50:00.690Z,68.90
2023-02-04T16:54:02.280Z,71.27
2023-02-04T16:58:03.784Z,71.03
2023-02-04T17:02:05.473Z,71.63
2023-02-04T17:06:07.251Z,70.32
2023-02-04T17:10:09.119Z,75.13
2023-02-04T17:14:15.677Z,72.01
2023-02-04T17:18:17.249Z,69.96
2023-02-04T17:22:18.760Z,70.73
2023-02-04T17:26:20.459Z,73.33
2023-02-04T17:30:22.514Z,72.96
2023-02-04T17:34:24.250Z,75.71
2023-02-04T17:38:27.966Z,75.28
2023-02-04T17:42:30.322Z,77.24
2023-02-04T17:46:32.061Z,77.43
2023-02-04T17:54:42.833Z,78.55
2023-02-04T17:58:44.373Z,77.74
2023-02-04T18:02:47.853Z,80.77
2023-02-04T18:06:51.979Z,81.75
2023-02-04T18:10:55.468Z,79.21
2023-02-04T18:14:58.949Z,80.80
2023-02-04T18:19:28.207Z,82.19
2023-02-04T18:23:32.941Z,84.28
2023-02-04T18:27:34.598Z,84.02
2023-02-04T18:31:52.907Z,85.36
2023-02-04T18:36:00.966Z,86.47
2023-02-04T18:40:08.612Z,87.77
2023-02-04T18:44:38.070Z,88.09
2023-02-04T18:49:02.801Z,89.69
2023-02-04T18:53:10.461Z,90.26
2023-02-04T18:57:45.803Z,89.33
2023-02-04T19:01:48.708Z,89.46
2023-02-04T19:05:50.859Z,90.09
2023-02-04T19:09:52.507Z,88.26
2023-02-04T19:13:57.086Z,87.81
2023-02-04T19:18:07.358Z,89.45
2023-02-04T19:22:36.350Z,89.46
2023-02-04T19:26:55.065Z,90.29
2023-02-04T19:31:03.645Z,90.00
2023-02-04T19:35:18.840Z,89.97
2023-02-04T19:39:39.441Z,91.80
2023-02-04T19:43:41.060Z,95.63
2023-02-04T19:47:44.003Z,91.19
2023-02-04T19:51:50.689Z,89.58
2023-02-04T19:55:54.240Z,87.48
2023-02-04T19:59:56.716Z,88.38
2023-02-04T20:04:00.288Z,86.47
2023-02-04T20:08:24.344Z,85.67
2023-02-04T20:12:29.313Z,85.38
2023-02-04T20:16:37.190Z,85.99
2023-02-04T20:20:40.418Z,86.95
2023-02-04T20:24:43.162Z,85.77
2023-02-04T20:28:45.788Z,87.43
2023-02-04T20:32:53.438Z,87.04
2023-02-04T20:36:55.521Z,86.85
2023-02-04T20:40:57.100Z,89.59
2023-02-04T20:45:34.313Z,87.78
2023-02-04T20:49:40.774Z,88.21
2023-02-04T20:54:01.009Z,87.99
2023-02-04T20:58:09.219Z,89.15
2023-02-04T21:02:18.436Z,89.12
2023-02-04T21:06:29.132Z,86.65
2023-02-04T21:10:30.607Z,87.12
2023-02-04T21:14:32.056Z,92.04
2023-02-04T21:18:36.698Z,90.99
2023-02-04T21:22:38.248Z,91.85
2023-02-04T21:26:40.159Z,89.64
2023-02-04T21:30:42.044Z,88.66
2023-02-04T21:34:43.549Z,95.01
2023-02-04T21:38:47.220Z,95.04
2023-02-04T21:42:49.542Z,99.42
2023-02-04T21:46:50.986Z,100.00
2023-02-04T21:50:52.439Z,100.00
2023-02-04T21:54:53.856Z,100.00
2023-02-04T21:58:56.350Z,100.00
2023-02-04T22:02:58.006Z,100.00
2023-02-04T22:06:59.590Z,99.26
2023-02-04T22:11:01.081Z,100.00
2023-02-04T22:15:04.291Z,100.00
2023-02-04T22:19:06.049Z,100.00
2023-02-04T22:23:07.593Z,100.00
2023-02-04T22:27:09.097Z,100.00
2023-02-04T22:31:12.374Z,100.00
2023-02-04T22:35:14.815Z,100.00
2023-02-04T22:39:16.397Z,100.00
2023-02-04T22:43:17.890Z,100.00
2023-02-04T22:47:19.400Z,100.00
2023-02-04T22:51:21.100Z,100.00
2023-02-04T22:55:22.657Z,100.00
2023-02-04T22:59:24.577Z,100.00
2023-02-04T23:03:26.065Z,100.00
2023-02-04T23:07:27.700Z,100.00
2023-02-04T23:11:29.417Z,100.00
2023-02-04T23:15:30.945Z,100.00
2023-02-04T23:19:32.520Z,100.00
2023-02-04T23:23:34.083Z,100.00
2023-02-04T23:27:35.591Z,100.00
2023-02-04T23:31:37.110Z,100.00
2023-02-04T23:35:38.576Z,100.00
2023-02-04T23:39:40.039Z,100.00
2023-02-04T23:43:41.523Z,100.00
2023-02-04T23:47:42.964Z,100.00
2023-02-04T23:51:44.577Z,100.00
2023-02-04T23:55:46.211Z,100.00
2023-02-04T23:59:47.704Z,100.00
